Time;durP1;ratioP1;P1;durP2;ratioP2;P2;SDS_P1;SDS_P2;PMS_P1;PMS_P2;Temp;Humidity;BMP_temperature;BMP_pressure;BME280_temperature;BME280_humidity;BME280_pressure;Samples;Min_cycle;Max_cycle;Signal;HPM_P1;HPM_P2
2023/08/13 00:00:57;;;;;;;14.00;2.27;;;;;;;-148.15;100.00;61821.78;4995154;28;20034;-88
2023/08/13 00:03:23;;;;;;;9.10;2.57;;;;;;;-148.15;100.00;61821.78;5015504;28;20042;-90
2023/08/13 00:05:48;;;;;;;14.43;2.90;;;;;;;-148.15;100.00;61821.78;5015399;28;20028;-90
2023/08/13 00:08:13;;;;;;;12.93;2.27;;;;;;;-148.15;100.00;61821.78;5015701;28;20046;-90
2023/08/13 00:10:39;;;;;;;10.60;2.37;;;;;;;-148.15;100.00;61821.78;5015604;28;20064;-89
2023/08/13 00:13:04;;;;;;;11.47;2.50;;;;;;;-148.15;100.00;61821.78;4998948;28;20290;-89
2023/08/13 00:15:30;;;;;;;8.57;2.40;;;;;;;-148.15;100.00;61821.78;5015327;28;20095;-90
2023/08/13 00:17:56;;;;;;;12.73;2.33;;;;;;;-148.15;100.00;61821.78;5014697;28;20086;-90
2023/08/13 00:20:22;;;;;;;7.57;2.50;;;;;;;-148.15;100.00;61821.78;5015786;28;20021;-89
2023/08/13 00:22:47;;;;;;;11.10;2.33;;;;;;;-148.15;100.00;61821.78;5014938;28;20018;-90
2023/08/13 00:25:12;;;;;;;11.02;2.20;;;;;;;-148.15;100.00;61821.78;5015638;28;20023;-90
2023/08/13 00:27:38;;;;;;;9.10;2.30;;;;;;;-148.15;100.00;61821.78;5014936;28;20082;-89
2023/08/13 00:30:04;;;;;;;11.13;2.27;;;;;;;-148.15;100.00;61821.78;5010014;28;20069;-90
2023/08/13 00:32:29;;;;;;;8.18;2.42;;;;;;;-148.15;100.00;61821.78;4977144;28;20026;-90
2023/08/13 00:34:55;;;;;;;12.80;2.20;;;;;;;-148.15;100.00;61821.78;4994859;28;20068;-89
2023/08/13 00:37:20;;;;;;;7.93;2.37;;;;;;;-148.15;100.00;61821.78;4994420;28;20429;-90
2023/08/13 00:39:45;;;;;;;10.07;2.03;;;;;;;-148.15;100.00;61821.78;4994851;28;20292;-90
2023/08/13 00:42:11;;;;;;;11.57;2.30;;;;;;;-148.15;100.00;61821.78;4994351;28;20022;-89
2023/08/13 00:44:36;;;;;;;12.60;2.60;;;;;;;-148.15;100.00;61821.78;4995023;28;20019;-90
2023/08/13 00:47:01;;;;;;;11.17;2.20;;;;;;;-148.15;100.00;61821.78;4976848;28;20053;-90
2023/08/13 00:49:27;;;;;;;10.27;2.50;;;;;;;-148.15;100.00;61821.78;4977200;28;20029;-89
2023/08/13 00:51:52;;;;;;;9.23;2.08;;;;;;;-148.15;100.00;61821.78;5011602;28;20053;-90
2023/08/13 00:54:18;;;;;;;8.83;2.30;;;;;;;-148.15;100.00;61821.78;4998931;28;20501;-90
2023/08/13 00:56:46;;;;;;;10.10;2.67;;;;;;;-148.15;100.00;61821.78;4997990;28;20027;-90
2023/08/13 00:59:12;;;;;;;10.48;2.10;;;;;;;-148.15;100.00;61821.78;4989204;28;20027;-90
2023/08/13 01:01:38;;;;;;;7.05;2.80;;;;;;;-148.15;100.00;61821.78;4995024;28;20073;-89
2023/08/13 01:04:03;;;;;;;11.03;2.27;;;;;;;-148.15;100.00;61821.78;4995402;28;20034;-90
2023/08/13 01:06:59;;;;;;;10.95;2.10;;;;;;;-148.15;100.00;61821.78;4994627;28;20110;-90
2023/08/13 01:09:32;;;;;;;10.88;2.35;;;;;;;-148.15;100.00;61821.78;4994754;28;20556;-90
2023/08/13 01:12:07;;;;;;;7.93;2.10;;;;;;;-148.15;100.00;61821.78;4993859;28;20158;-89
2023/08/13 01:14:42;;;;;;;8.70;2.10;;;;;;;-148.15;100.00;61821.78;4993158;28;20445;-90
2023/08/13 01:17:11;;;;;;;10.40;2.30;;;;;;;-148.15;100.00;61821.78;4992900;28;20057;-90
2023/08/13 01:19:36;;;;;;;12.43;2.57;;;;;;;-148.15;100.00;61821.78;4992637;28;20392;-89
2023/08/13 01:22:01;;;;;;;7.70;2.03;;;;;;;-148.15;100.00;61821.78;4992032;28;20117;-90
2023/08/13 01:24:28;;;;;;;9.10;2.00;;;;;;;-148.15;100.00;61821.78;4992636;28;20415;-90
2023/08/13 01:27:12;;;;;;;8.50;1.95;;;;;;;-148.15;100.00;61821.78;4992513;28;20109;-90
2023/08/13 01:29:46;;;;;;;9.47;2.50;;;;;;;-148.15;100.00;61821.78;4992613;28;20042;-90
2023/08/13 01:32:14;;;;;;;9.10;2.70;;;;;;;-148.15;100.00;61821.78;4993090;28;20436;-90
2023/08/13 01:34:41;;;;;;;10.98;2.35;;;;;;;-148.15;100.00;61821.78;4992935;28;20105;-90
2023/08/13 01:37:08;;;;;;;7.45;1.95;;;;;;;-148.15;100.00;61821.78;4991851;28;20109;-90
2023/08/13 01:39:33;;;;;;;10.57;2.00;;;;;;;-148.15;100.00;61821.78;4992628;28;20037;-90
2023/08/13 01:41:59;;;;;;;11.93;2.42;;;;;;;-148.15;100.00;61821.78;4991720;28;20034;-90
2023/08/13 01:44:24;;;;;;;13.30;2.33;;;;;;;-148.15;100.00;61821.78;4992482;28;20034;-89
2023/08/13 01:46:49;;;;;;;12.53;2.70;;;;;;;-148.15;100.00;61821.78;4992015;28;20050;-89
2023/08/13 01:49:15;;;;;;;11.13;2.20;;;;;;;-148.15;100.00;61821.78;4992483;28;20077;-90
2023/08/13 01:51:40;;;;;;;11.98;2.22;;;;;;;-148.15;100.00;61821.78;4992708;28;20033;-89
2023/08/13 01:54:06;;;;;;;9.03;2.00;;;;;;;-148.15;100.00;61821.78;4990839;28;20078;-90
2023/08/13 01:56:31;;;;;;;12.27;2.57;;;;;;;-148.15;100.00;61821.78;4992243;28;20026;-90
2023/08/13 01:58:57;;;;;;;8.07;2.42;;;;;;;-148.15;100.00;61821.78;4991585;28;20034;-90
2023/08/13 02:01:22;;;;;;;19.30;2.40;;;;;;;-148.15;100.00;61821.78;4991930;28;20040;-90
2023/08/13 02:03:47;;;;;;;9.00;2.00;;;;;;;-148.15;100.00;61821.78;4991350;28;20030;-89
2023/08/13 02:06:13;;;;;;;11.93;2.30;;;;;;;-148.15;100.00;61821.78;4990674;28;20029;-90
2023/08/13 02:08:38;;;;;;;10.52;2.35;;;;;;;-148.15;100.00;61821.78;4991394;28;20037;-89
2023/08/13 02:11:04;;;;;;;10.73;1.77;;;;;;;-148.15;100.00;61821.78;5006624;28;20030;-90
2023/08/13 02:13:29;;;;;;;12.53;2.30;;;;;;;-148.15;100.00;61821.78;4999271;28;20044;-89
2023/08/13 02:15:54;;;;;;;10.27;2.20;;;;;;;-148.15;100.00;61821.78;4993606;28;20028;-90
2023/08/13 02:18:20;;;;;;;14.80;2.63;;;;;;;-148.15;100.00;61821.78;5010537;28;20022;-90
2023/08/13 02:20:45;;;;;;;9.70;2.13;;;;;;;-148.15;100.00;61821.78;4993382;28;20278;-90
2023/08/13 02:23:10;;;;;;;8.20;2.10;;;;;;;-148.15;100.00;61821.78;4991782;28;20040;-90
2023/08/13 02:25:36;;;;;;;9.80;2.33;;;;;;;-148.15;100.00;61821.78;4991620;28;20402;-90
2023/08/13 02:28:01;;;;;;;14.93;2.35;;;;;;;-148.15;100.00;61821.78;4990801;28;20030;-89
2023/08/13 02:30:27;;;;;;;12.13;2.27;;;;;;;-148.15;100.00;61821.78;4992572;28;20061;-90
2023/08/13 02:32:52;;;;;;;10.63;2.53;;;;;;;-148.15;100.00;61821.78;4991856;28;20062;-91
2023/08/13 02:35:17;;;;;;;8.70;2.00;;;;;;;-148.15;100.00;61821.78;4994074;28;20062;-90
2023/08/13 02:37:43;;;;;;;9.48;1.98;;;;;;;-148.15;100.00;61821.78;4991031;28;20050;-90
2023/08/13 02:40:08;;;;;;;9.77;2.20;;;;;;;-148.15;100.00;61821.78;4991557;28;20121;-90
2023/08/13 02:42:34;;;;;;;10.90;2.17;;;;;;;-148.15;100.00;61821.78;4989414;28;20038;-90
2023/08/13 02:44:59;;;;;;;8.47;2.17;;;;;;;-148.15;100.00;61821.78;4990858;28;20454;-90
2023/08/13 02:47:25;;;;;;;11.25;2.40;;;;;;;-148.15;100.00;61821.78;4990790;28;20034;-90
2023/08/13 02:49:50;;;;;;;12.73;2.00;;;;;;;-148.15;100.00;61821.78;4991483;28;20094;-89
2023/08/13 02:52:15;;;;;;;10.23;2.10;;;;;;;-148.15;100.00;61821.78;4991889;28;20038;-90
2023/08/13 02:54:41;;;;;;;9.98;2.15;;;;;;;-148.15;100.00;61821.78;4991474;28;20390;-90
2023/08/13 02:57:06;;;;;;;7.70;2.23;;;;;;;-148.15;100.00;61821.78;4990807;28;20473;-90
2023/08/13 02:59:31;;;;;;;8.60;1.97;;;;;;;-148.15;100.00;61821.78;4990002;28;20026;-90
2023/08/13 03:01:57;;;;;;;8.43;2.00;;;;;;;-148.15;100.00;61821.78;4988955;28;20510;-90
2023/08/13 03:04:22;;;;;;;5.05;1.70;;;;;;;-148.15;100.00;61821.78;4991970;28;20022;-90
2023/08/13 03:06:48;;;;;;;5.87;2.00;;;;;;;-148.15;100.00;61821.78;4990344;28;20039;-90
2023/08/13 03:09:21;;;;;;;13.13;2.30;;;;;;;-148.15;100.00;61821.78;4991312;28;20679;-89
2023/08/13 03:11:47;;;;;;;8.63;2.22;;;;;;;-148.15;100.00;61821.78;4990372;28;20034;-89
2023/08/13 03:14:12;;;;;;;10.07;2.37;;;;;;;-148.15;100.00;61821.78;4991261;28;20037;-90
2023/08/13 03:16:38;;;;;;;8.60;1.95;;;;;;;-148.15;100.00;61821.78;4988207;28;20030;-90
2023/08/13 03:19:03;;;;;;;6.93;2.00;;;;;;;-148.15;100.00;61821.78;4973688;28;20080;-89
2023/08/13 03:21:28;;;;;;;13.50;1.70;;;;;;;-148.15;100.00;61821.78;4991009;28;20089;-90
2023/08/13 03:23:54;;;;;;;7.93;1.97;;;;;;;-148.15;100.00;61821.78;4990716;28;20421;-90
2023/08/13 03:26:19;;;;;;;10.13;2.15;;;;;;;-148.15;100.00;61821.78;4990466;28;20026;-90
2023/08/13 03:28:44;;;;;;;6.87;1.80;;;;;;;-148.15;100.00;61821.78;4991277;28;20022;-88
2023/08/13 03:31:10;;;;;;;12.43;2.20;;;;;;;-148.15;100.00;61821.78;4997353;28;20021;-90
2023/08/13 03:33:35;;;;;;;9.20;2.00;;;;;;;-148.15;100.00;61821.78;4983495;28;20033;-90
2023/08/13 03:36:00;;;;;;;8.07;2.17;;;;;;;-148.15;100.00;61821.78;4978413;28;20083;-90
2023/08/13 03:38:26;;;;;;;11.43;1.83;;;;;;;-148.15;100.00;61821.78;4988075;28;20375;-90
2023/08/13 03:40:57;;;;;;;11.37;2.13;;;;;;;-148.15;100.00;61821.78;4971460;28;20159;-89
2023/08/13 03:43:23;;;;;;;8.15;2.63;;;;;;;-148.15;100.00;61821.78;4971830;28;20069;-90
2023/08/13 03:45:48;;;;;;;11.57;2.10;;;;;;;-148.15;100.00;61821.78;4953523;28;20499;-90
2023/08/13 03:48:14;;;;;;;7.47;2.07;;;;;;;-148.15;100.00;61821.78;4971715;28;20605;-90
2023/08/13 03:50:43;;;;;;;9.93;1.85;;;;;;;-148.15;100.00;61821.78;4982395;28;20047;-90
2023/08/13 03:53:09;;;;;;;7.85;2.33;;;;;;;-148.15;100.00;61821.78;4990623;28;20023;-90
2023/08/13 03:55:36;;;;;;;6.57;1.93;;;;;;;-148.15;100.00;61821.78;4990374;28;20033;-89
2023/08/13 03:58:01;;;;;;;5.73;2.00;;;;;;;-148.15;100.00;61821.78;4990450;28;20792;-90
2023/08/13 04:00:27;;;;;;;6.72;1.70;;;;;;;-148.15;100.00;61821.78;4990308;28;20035;-90
2023/08/13 04:02:52;;;;;;;9.33;2.10;;;;;;;-148.15;100.00;61821.78;4990861;28;20038;-90
2023/08/13 04:05:19;;;;;;;6.93;2.17;;;;;;;-148.15;100.00;61821.78;4991807;28;20032;-90
2023/08/13 04:07:45;;;;;;;8.57;2.10;;;;;;;-148.15;100.00;61821.78;4992331;28;20038;-90
2023/08/13 04:10:10;;;;;;;11.03;2.30;;;;;;;-148.15;100.00;61821.78;4994078;28;20081;-90
2023/08/13 04:12:35;;;;;;;8.57;2.17;;;;;;;-148.15;100.00;61821.78;4994386;28;20081;-90
2023/08/13 04:15:02;;;;;;;8.87;1.93;;;;;;;-148.15;100.00;61821.78;4994577;28;20288;-90
2023/08/13 04:17:27;;;;;;;13.00;2.17;;;;;;;-148.15;100.00;61821.78;4994235;28;20320;-90
2023/08/13 04:19:52;;;;;;;8.90;2.13;;;;;;;-148.15;100.00;61821.78;4993841;28;20046;-90
2023/08/13 04:22:18;;;;;;;8.80;2.40;;;;;;;-148.15;100.00;61821.78;4993598;28;20034;-89
2023/08/13 04:24:50;;;;;;;9.07;2.33;;;;;;;-148.15;100.00;61821.78;4992351;28;20026;-90
2023/08/13 04:27:16;;;;;;;9.60;2.25;;;;;;;-148.15;100.00;61821.78;4993911;28;20110;-90
2023/08/13 04:29:42;;;;;;;10.10;2.15;;;;;;;-148.15;100.00;61821.78;4976675;28;20037;-91
2023/08/13 04:32:07;;;;;;;9.77;2.43;;;;;;;-148.15;100.00;61821.78;4993960;28;20023;-89
2023/08/13 04:34:32;;;;;;;8.60;2.33;;;;;;;-148.15;100.00;61821.78;4993997;28;20057;-90
2023/08/13 04:36:58;;;;;;;11.30;2.20;;;;;;;-148.15;100.00;61821.78;4994573;28;20023;-90
2023/08/13 04:39:23;;;;;;;9.33;2.20;;;;;;;-148.15;100.00;61821.78;4993474;28;20117;-90
2023/08/13 04:41:49;;;;;;;7.93;2.00;;;;;;;-148.15;100.00;61821.78;4993468;28;20030;-90
2023/08/13 04:44:14;;;;;;;10.30;2.22;;;;;;;-148.15;100.00;61821.78;4995827;28;20497;-90
2023/08/13 04:46:40;;;;;;;8.60;2.27;;;;;;;-148.15;100.00;61821.78;4995631;28;20030;-91
2023/08/13 04:49:05;;;;;;;9.03;2.57;;;;;;;-148.15;100.00;61821.78;5000633;28;20014;-90
2023/08/13 04:51:30;;;;;;;11.57;2.40;;;;;;;-148.15;100.00;61821.78;5012154;28;20053;-90
2023/08/13 04:53:56;;;;;;;7.50;2.37;;;;;;;-148.15;100.00;61821.78;4995960;28;20049;-90
2023/08/13 04:56:21;;;;;;;13.10;2.65;;;;;;;-148.15;100.00;61821.78;5006020;28;20031;-90
2023/08/13 04:58:46;;;;;;;6.43;2.20;;;;;;;-148.15;100.00;61821.78;5002128;28;20042;-90
2023/08/13 05:01:12;;;;;;;7.87;2.20;;;;;;;-148.15;100.00;61821.78;4995373;28;20026;-90
2023/08/13 05:03:37;;;;;;;6.43;2.07;;;;;;;-148.15;100.00;61821.78;4995186;28;20394;-90
2023/08/13 05:06:03;;;;;;;9.75;2.33;;;;;;;-148.15;100.00;61821.78;4995330;28;20046;-91
2023/08/13 05:08:28;;;;;;;9.00;2.40;;;;;;;-148.15;100.00;61821.78;4994822;28;20025;-90
2023/08/13 05:10:54;;;;;;;11.73;2.87;;;;;;;-148.15;100.00;61821.78;4993278;28;20119;-91
2023/08/13 05:13:19;;;;;;;10.88;2.30;;;;;;;-148.15;100.00;61821.78;4992140;28;20034;-89
2023/08/13 05:15:45;;;;;;;12.63;2.30;;;;;;;-148.15;100.00;61821.78;4993339;28;20567;-90
2023/08/13 05:18:10;;;;;;;8.00;2.50;;;;;;;-148.15;100.00;61821.78;4993175;28;20030;-90
2023/08/13 05:20:35;;;;;;;8.73;2.60;;;;;;;-148.15;100.00;61821.78;4993178;28;20023;-94
2023/08/13 05:23:01;;;;;;;7.80;2.47;;;;;;;-148.15;100.00;61821.78;4993128;28;20325;-91
2023/08/13 05:25:26;;;;;;;12.90;2.50;;;;;;;-148.15;100.00;61821.78;4987833;28;20023;-91
2023/08/13 05:27:52;;;;;;;9.10;2.70;;;;;;;-148.15;100.00;61821.78;4985557;28;20105;-91
2023/08/13 05:30:17;;;;;;;12.73;2.20;;;;;;;-148.15;100.00;61821.78;4982538;28;20054;-94
2023/08/13 05:32:43;;;;;;;10.90;2.50;;;;;;;-148.15;100.00;61821.78;4992316;28;20038;-94
2023/08/13 05:35:08;;;;;;;8.73;2.30;;;;;;;-148.15;100.00;61821.78;4992963;28;20024;-91
2023/08/13 05:37:34;;;;;;;12.35;2.30;;;;;;;-148.15;100.00;61821.78;4992337;28;20125;-92
2023/08/13 05:39:59;;;;;;;9.37;2.40;;;;;;;-148.15;100.00;61821.78;4993160;28;20023;-96
2023/08/13 05:42:25;;;;;;;8.27;2.70;;;;;;;-148.15;100.00;61821.78;4987605;28;20121;-95
2023/08/13 05:44:50;;;;;;;13.95;2.60;;;;;;;-148.15;100.00;61821.78;4992827;28;20034;-95
2023/08/13 05:47:15;;;;;;;7.33;2.50;;;;;;;-148.15;100.00;61821.78;5000155;28;20074;-95
2023/08/13 05:49:41;;;;;;;9.63;2.30;;;;;;;-148.15;100.00;61821.78;4998280;28;20026;-96
2023/08/13 05:52:06;;;;;;;5.93;2.30;;;;;;;-148.15;100.00;61821.78;5002838;28;20026;-96
2023/08/13 05:54:31;;;;;;;10.70;2.73;;;;;;;-148.15;100.00;61821.78;4993703;28;20032;-96
2023/08/13 05:56:57;;;;;;;9.00;2.30;;;;;;;-148.15;100.00;61821.78;5003931;28;20038;-95
2023/08/13 05:59:22;;;;;;;8.43;2.50;;;;;;;-148.15;100.00;61821.78;5002058;28;20029;-94
2023/08/13 06:01:47;;;;;;;7.53;2.43;;;;;;;-148.15;100.00;61821.78;5001903;28;20026;-96
2023/08/13 06:04:13;;;;;;;9.83;2.27;;;;;;;-148.15;100.00;61821.78;4998772;28;20433;-96
2023/08/13 06:06:38;;;;;;;6.35;2.20;;;;;;;-148.15;100.00;61821.78;5002471;28;20030;-94
2023/08/13 06:09:05;;;;;;;8.27;2.00;;;;;;;-148.15;100.00;61821.78;4993697;28;20029;-94
2023/08/13 06:11:30;;;;;;;6.88;2.50;;;;;;;-148.15;100.00;61821.78;5009229;28;20617;-93
2023/08/13 06:13:56;;;;;;;12.93;2.47;;;;;;;-148.15;100.00;61821.78;5004004;28;20010;-96
2023/08/13 06:16:21;;;;;;;7.13;2.10;;;;;;;-148.15;100.00;61821.78;5010681;28;20034;-95
2023/08/13 06:18:46;;;;;;;10.13;2.33;;;;;;;-148.15;100.00;61821.78;5000515;28;20030;-93
2023/08/13 06:21:12;;;;;;;11.02;2.83;;;;;;;-148.15;100.00;61821.78;4986871;28;20097;-93
2023/08/13 06:23:38;;;;;;;11.60;2.47;;;;;;;-148.15;100.00;61821.78;4976702;28;20035;-94
2023/08/13 06:26:04;;;;;;;8.07;2.45;;;;;;;-148.15;100.00;61821.78;4977961;28;20529;-94
2023/08/13 06:28:29;;;;;;;12.73;2.10;;;;;;;-148.15;100.00;61821.78;4991726;28;20015;-91
2023/08/13 06:30:55;;;;;;;10.40;2.23;;;;;;;-148.15;100.00;61821.78;4991555;28;20288;-91
2023/08/13 06:33:20;;;;;;;7.50;2.07;;;;;;;-148.15;100.00;61821.78;4991726;28;20026;-92
2023/08/13 06:35:47;;;;;;;11.85;2.70;;;;;;;-148.15;100.00;61821.78;4976145;28;20514;-92
2023/08/13 06:38:14;;;;;;;11.60;2.30;;;;;;;-148.15;100.00;61821.78;4992132;28;20034;-92
2023/08/13 06:40:39;;;;;;;8.68;2.25;;;;;;;-148.15;100.00;61821.78;4981124;28;20023;-93
2023/08/13 06:43:04;;;;;;;8.90;2.20;;;;;;;-148.15;100.00;61821.78;4980466;28;20034;-92
2023/08/13 06:45:30;;;;;;;7.90;2.10;;;;;;;-148.15;100.00;61821.78;4991536;28;20308;-92
2023/08/13 06:47:59;;;;;;;10.77;2.37;;;;;;;-148.15;100.00;61821.78;4998131;28;20038;-92
2023/08/13 06:50:25;;;;;;;8.52;2.20;;;;;;;-148.15;100.00;61821.78;4994849;28;20030;-92
2023/08/13 06:52:51;;;;;;;9.90;2.38;;;;;;;-148.15;100.00;61821.78;4992284;28;20030;-93
2023/08/13 06:55:17;;;;;;;9.43;2.40;;;;;;;-148.15;100.00;61821.78;4991817;28;20034;-92
2023/08/13 06:57:42;;;;;;;8.63;2.20;;;;;;;-148.15;100.00;61821.78;4991244;28;20034;-93
2023/08/13 07:00:08;;;;;;;7.53;2.03;;;;;;;-148.15;100.00;61821.78;4991845;28;20022;-92
2023/08/13 07:02:34;;;;;;;10.35;2.58;;;;;;;-148.15;100.00;61821.78;4989113;28;20034;-92
2023/08/13 07:04:59;;;;;;;7.63;1.80;;;;;;;-148.15;100.00;61821.78;4992576;28;20042;-89
2023/08/13 07:07:24;;;;;;;10.07;2.50;;;;;;;-148.15;100.00;61821.78;4990478;28;20030;-92
2023/08/13 07:09:51;;;;;;;6.70;2.10;;;;;;;-148.15;100.00;61821.78;4991473;28;20277;-91
2023/08/13 07:12:16;;;;;;;10.30;2.35;;;;;;;-148.15;100.00;61821.78;4987454;28;20073;-92
2023/08/13 07:14:43;;;;;;;10.00;2.13;;;;;;;-148.15;100.00;61821.78;4976744;28;20050;-92
2023/08/13 07:17:08;;;;;;;12.48;2.00;;;;;;;-148.15;100.00;61821.78;4972759;28;20066;-93
2023/08/13 07:19:33;;;;;;;8.53;2.20;;;;;;;-148.15;100.00;61821.78;4973497;28;20457;-92
2023/08/13 07:21:58;;;;;;;9.97;2.47;;;;;;;-148.15;100.00;61821.78;4971600;28;20027;-91
2023/08/13 07:24:24;;;;;;;7.50;2.30;;;;;;;-148.15;100.00;61821.78;4972060;28;20586;-91
2023/08/13 07:26:49;;;;;;;10.57;2.45;;;;;;;-148.15;100.00;61821.78;4970671;28;20026;-91
2023/08/13 07:29:15;;;;;;;7.40;2.30;;;;;;;-148.15;100.00;61821.78;4979906;28;20015;-91
2023/08/13 07:31:40;;;;;;;11.60;2.37;;;;;;;-148.15;100.00;61821.78;4979495;28;20030;-91
2023/08/13 07:34:06;;;;;;;9.30;2.22;;;;;;;-148.15;100.00;61821.78;4972965;28;20030;-92
2023/08/13 07:36:31;;;;;;;6.90;1.60;;;;;;;-148.15;100.00;61821.78;4990901;28;20014;-91
2023/08/13 07:38:57;;;;;;;8.53;2.10;;;;;;;-148.15;100.00;61821.78;4976856;28;20528;-91
2023/08/13 07:41:22;;;;;;;6.20;1.92;;;;;;;-148.15;100.00;61821.78;4981295;28;20035;-93
2023/08/13 07:43:48;;;;;;;11.27;2.27;;;;;;;-148.15;100.00;61821.78;4976538;28;20073;-90
2023/08/13 07:46:13;;;;;;;13.13;2.40;;;;;;;-148.15;100.00;61821.78;4976027;28;20472;-92
2023/08/13 07:48:38;;;;;;;6.40;2.20;;;;;;;-148.15;100.00;61821.78;4976690;28;20030;-92
2023/08/13 07:51:04;;;;;;;12.13;2.45;;;;;;;-148.15;100.00;61821.78;4992451;28;20103;-92
2023/08/13 07:53:31;;;;;;;7.00;2.20;;;;;;;-148.15;100.00;61821.78;4994833;28;20045;-91
2023/08/13 07:55:57;;;;;;;10.05;2.05;;;;;;;-148.15;100.00;61821.78;4993605;28;20022;-91
2023/08/13 07:58:22;;;;;;;7.45;2.20;;;;;;;-148.15;100.00;61821.78;4994718;28;20077;-91
2023/08/13 08:00:48;;;;;;;8.90;2.30;;;;;;;-148.15;100.00;61821.78;4991834;28;20027;-90
2023/08/13 08:03:13;;;;;;;6.97;2.10;;;;;;;-148.15;100.00;61821.78;4994977;28;20030;-92
2023/08/13 08:05:38;;;;;;;10.87;2.47;;;;;;;-148.15;100.00;61821.78;4991937;28;20057;-91
2023/08/13 08:08:04;;;;;;;7.85;2.30;;;;;;;-148.15;100.00;61821.78;4976839;28;20433;-91
2023/08/13 08:10:29;;;;;;;9.20;2.33;;;;;;;-148.15;100.00;61821.78;4980177;28;20031;-95
2023/08/13 08:12:55;;;;;;;7.97;2.07;;;;;;;-148.15;100.00;61821.78;4987050;28;20007;-96
2023/08/13 08:15:21;;;;;;;11.03;2.20;;;;;;;-148.15;100.00;61821.78;4987783;28;20066;-96
2023/08/13 08:17:47;;;;;;;10.80;2.30;;;;;;;-148.15;100.00;61821.78;4988451;28;20022;-94
2023/08/13 08:20:12;;;;;;;8.05;2.35;;;;;;;-148.15;100.00;61821.78;4983016;28;20129;-95
2023/08/13 08:22:38;;;;;;;9.93;2.10;;;;;;;-148.15;100.00;61821.78;4985673;28;20026;-96
2023/08/13 08:25:11;;;;;;;10.60;2.03;;;;;;;-148.15;100.00;61821.78;5001478;28;20026;-96
2023/08/13 08:27:37;;;;;;;7.25;2.10;;;;;;;-148.15;100.00;61821.78;4994026;28;20497;-94
2023/08/13 08:30:03;;;;;;;9.35;2.03;;;;;;;-148.15;100.00;61821.78;4978965;28;20031;-96
2023/08/13 08:32:30;;;;;;;8.80;2.30;;;;;;;-148.15;100.00;61821.78;4987638;28;20015;-94
2023/08/13 08:34:55;;;;;;;12.32;2.42;;;;;;;-148.15;100.00;61821.78;4975931;28;20034;-93
2023/08/13 08:37:20;;;;;;;7.23;2.00;;;;;;;-148.15;100.00;61821.78;4980754;28;20023;-96
2023/08/13 08:39:46;;;;;;;8.60;2.33;;;;;;;-148.15;100.00;61821.78;4987943;28;20014;-96
2023/08/13 08:42:26;;;;;;;6.20;1.83;;;;;;;-148.15;100.00;61821.78;5007306;28;20022;-96
2023/08/13 08:44:52;;;;;;;9.00;1.70;;;;;;;-148.15;100.00;61821.78;5008824;28;20030;-96
2023/08/13 08:47:20;;;;;;;5.73;2.10;;;;;;;-148.15;100.00;61821.78;4998711;28;20278;-91
2023/08/13 08:49:46;;;;;;;5.90;1.90;;;;;;;-148.15;100.00;61821.78;5013979;28;20034;-94
2023/08/13 08:52:12;;;;;;;7.57;1.90;;;;;;;-148.15;100.00;61821.78;4998464;28;20033;-95
2023/08/13 08:54:39;;;;;;;5.47;2.10;;;;;;;-148.15;100.00;61821.78;5014771;28;20030;-95
2023/08/13 08:57:05;;;;;;;10.35;2.28;;;;;;;-148.15;100.00;61821.78;5015186;28;20107;-96
2023/08/13 08:59:30;;;;;;;6.65;2.40;;;;;;;-148.15;100.00;61821.78;5000687;28;20022;-93
2023/08/13 09:01:56;;;;;;;6.40;2.10;;;;;;;-148.15;100.00;61821.78;4999588;28;20096;-94
2023/08/13 09:04:22;;;;;;;10.07;2.40;;;;;;;-148.15;100.00;61821.78;4998038;28;20029;-95
2023/08/13 09:06:57;;;;;;;9.05;2.30;;;;;;;-148.15;100.00;61821.78;4999815;28;20035;-92
2023/08/13 09:09:23;;;;;;;8.15;2.30;;;;;;;-148.15;100.00;61821.78;5005668;28;20034;-95
2023/08/13 09:11:50;;;;;;;7.43;2.40;;;;;;;-148.15;100.00;61821.78;4998554;28;20121;-93
2023/08/13 09:14:15;;;;;;;11.03;2.37;;;;;;;-148.15;100.00;61821.78;5000861;28;20784;-94
2023/08/13 09:16:48;;;;;;;8.40;2.30;;;;;;;-148.15;100.00;61821.78;4997558;28;20075;-95
2023/08/13 09:19:14;;;;;;;8.13;2.28;;;;;;;-148.15;100.00;61821.78;4996045;28;20050;-93
2023/08/13 09:21:49;;;;;;;8.23;1.90;;;;;;;-148.15;100.00;61821.78;4995868;28;20137;-91
2023/08/13 09:24:14;;;;;;;6.70;2.40;;;;;;;-148.15;100.00;61821.78;4978433;28;20270;-92
2023/08/13 09:26:39;;;;;;;6.00;2.17;;;;;;;-148.15;100.00;61821.78;4979051;28;20239;-93
2023/08/13 09:29:08;;;;;;;5.97;2.20;;;;;;;-148.15;100.00;61821.78;4976550;28;20042;-96
2023/08/13 09:31:35;;;;;;;8.63;2.60;;;;;;;-148.15;100.00;61821.78;4990267;28;20030;-91
2023/08/13 09:34:00;;;;;;;7.75;2.53;;;;;;;-148.15;100.00;61821.78;4994308;28;20073;-92
2023/08/13 09:36:27;;;;;;;7.70;2.07;;;;;;;-148.15;100.00;61821.78;4996017;28;20027;-92
2023/08/13 09:38:53;;;;;;;7.15;2.30;;;;;;;-148.15;100.00;61821.78;4996045;28;20045;-93
2023/08/13 09:41:20;;;;;;;6.80;2.10;;;;;;;-148.15;100.00;61821.78;4997111;28;20398;-92
2023/08/13 09:43:49;;;;;;;8.50;2.10;;;;;;;-148.15;100.00;61821.78;4993994;28;20038;-92
2023/08/13 09:46:19;;;;;;;6.33;2.10;;;;;;;-148.15;100.00;61821.78;4994565;28;20324;-92
2023/08/13 09:48:46;;;;;;;5.50;2.13;;;;;;;-148.15;100.00;61821.78;4994369;28;20037;-92
2023/08/13 09:51:13;;;;;;;10.43;2.13;;;;;;;-148.15;100.00;61821.78;4997261;28;20049;-93
2023/08/13 09:53:42;;;;;;;7.50;2.22;;;;;;;-148.15;100.00;61821.78;4995643;28;20037;-93
2023/08/13 09:56:09;;;;;;;8.18;2.42;;;;;;;-148.15;100.00;61821.78;4995225;28;20047;-91
2023/08/13 09:58:34;;;;;;;9.95;2.22;;;;;;;-148.15;100.00;61821.78;4997508;28;20109;-92
2023/08/13 10:01:00;;;;;;;6.93;2.00;;;;;;;-148.15;100.00;61821.78;4993937;28;20197;-93
2023/08/13 10:03:28;;;;;;;8.05;2.53;;;;;;;-148.15;100.00;61821.78;4996959;28;20034;-93
2023/08/13 10:05:55;;;;;;;5.53;2.08;;;;;;;-148.15;100.00;61821.78;4983384;28;20053;-94
2023/08/13 10:08:21;;;;;;;5.88;2.08;;;;;;;-148.15;100.00;61821.78;5006579;28;20065;-93
2023/08/13 10:10:48;;;;;;;8.82;2.25;;;;;;;-148.15;100.00;61821.78;5001758;28;20042;-86
2023/08/13 10:13:14;;;;;;;7.93;2.17;;;;;;;-148.15;100.00;61821.78;4991769;28;20037;-86
2023/08/13 10:15:40;;;;;;;9.30;2.57;;;;;;;-148.15;100.00;61821.78;4995111;28;20329;-88
2023/08/13 10:18:06;;;;;;;6.40;2.15;;;;;;;-148.15;100.00;61821.78;4981394;28;20034;-87
2023/08/13 10:20:31;;;;;;;7.70;2.20;;;;;;;-148.15;100.00;61821.78;4991539;28;20023;-89
2023/08/13 10:22:56;;;;;;;5.93;2.30;;;;;;;-148.15;100.00;61821.78;4990655;28;20042;-88
2023/08/13 10:25:29;;;;;;;8.43;2.60;;;;;;;-148.15;100.00;61821.78;4992220;28;20038;-87
2023/08/13 10:27:56;;;;;;;7.00;2.38;;;;;;;-148.15;100.00;61821.78;4993074;28;20036;-87
2023/08/13 10:30:21;;;;;;;8.57;1.90;;;;;;;-148.15;100.00;61821.78;4992112;28;20049;-88
2023/08/13 10:33:03;;;;;;;9.68;2.55;;;;;;;-148.15;100.00;61821.78;4991726;28;20506;-88
2023/08/13 10:35:40;;;;;;;8.20;2.80;;;;;;;-148.15;100.00;61821.78;4989831;28;20112;-87
2023/08/13 10:38:07;;;;;;;7.37;2.50;;;;;;;-148.15;100.00;61821.78;4990639;28;20297;-88
2023/08/13 10:40:33;;;;;;;5.82;2.40;;;;;;;-148.15;100.00;61821.78;4990789;28;20026;-88
2023/08/13 10:42:59;;;;;;;7.90;2.10;;;;;;;-148.15;100.00;61821.78;4991474;28;20034;-88
2023/08/13 10:45:37;;;;;;;7.25;2.50;;;;;;;-148.15;100.00;61821.78;4973372;28;20034;-89
2023/08/13 10:48:06;;;;;;;7.10;2.40;;;;;;;-148.15;100.00;61821.78;4991189;28;20026;-87
2023/08/13 10:50:34;;;;;;;7.88;2.60;;;;;;;-148.15;100.00;61821.78;4990330;28;20046;-86
2023/08/13 10:53:05;;;;;;;8.18;2.50;;;;;;;-148.15;100.00;61821.78;4991436;28;20412;-87
2023/08/13 10:55:47;;;;;;;11.20;2.93;;;;;;;-148.15;100.00;61821.78;4991167;28;20041;-87
2023/08/13 10:58:37;;;;;;;12.97;2.63;;;;;;;-148.15;100.00;61821.78;4991975;28;20285;-88
2023/08/13 11:01:08;;;;;;;9.65;2.53;;;;;;;-148.15;100.00;61821.78;4991648;28;20032;-87
2023/08/13 11:03:34;;;;;;;5.90;2.22;;;;;;;-148.15;100.00;61821.78;4990100;28;20087;-88